sensor_id;sensor_type;location;lat;lon;timestamp;pressure;altitude;pressure_sealevel;temperature;humidity
38038;BME280;23843;51.320;12.340;2023-02-23T05:31:42;99969.28;;;8.67;100.00
38038;BME280;23843;51.320;12.340;2023-02-23T05:34:08;99964.19;;;8.64;100.00
38038;BME280;23843;51.320;12.340;2023-02-23T05:36:34;99964.19;;;8.64;100.00
38038;BME280;23843;51.320;12.340;2023-02-23T05:39:00;99970.31;;;8.64;100.00
38038;BME280;23843;51.320;12.340;2023-02-23T05:41:25;99970.25;;;8.66;100.00
38038;BME280;23843;51.320;12.340;2023-02-23T05:46:19;99968.56;;;8.63;100.00
38038;BME280;23843;51.320;12.340;2023-02-23T05:48:49;99973.97;;;8.62;100.00
38038;BME280;23843;51.320;12.340;2023-02-23T05:51:21;99974.25;;;8.55;100.00
38038;BME280;23843;51.320;12.340;2023-02-23T05:53:48;99977.06;;;8.52;100.00
38038;BME280;23843;51.320;12.340;2023-02-23T05:56:15;99974.44;;;8.52;100.00
38038;BME280;23843;51.320;12.340;2023-02-23T05:58:42;99984.22;;;8.50;100.00
38038;BME280;23843;51.320;12.340;2023-02-23T06:01:07;99978.88;;;8.52;100.00
38038;BME280;23843;51.320;12.340;2023-02-23T06:03:34;99979.78;;;8.51;100.00
38038;BME280;23843;51.320;12.340;2023-02-23T06:06:02;99992.06;;;8.52;100.00
38038;BME280;23843;51.320;12.340;2023-02-23T06:08:30;99994.63;;;8.53;100.00
38038;BME280;23843;51.320;12.340;2023-02-23T06:10:56;99994.94;;;8.47;100.00
38038;BME280;23843;51.320;12.340;2023-02-23T06:13:21;99990.50;;;8.48;100.00
38038;BME280;23843;51.320;12.340;2023-02-23T06:15:47;99999.38;;;8.47;100.00
38038;BME280;23843;51.320;12.340;2023-02-23T06:18:14;99997.63;;;8.46;100.00
38038;BME280;23843;51.320;12.340;2023-02-23T06:20:39;100001.06;;;8.48;100.00
38038;BME280;23843;51.320;12.340;2023-02-23T06:23:07;100005.31;;;8.50;100.00
38038;BME280;23843;51.320;12.340;2023-02-23T06:25:36;100002.78;;;8.49;100.00
38038;BME280;23843;51.320;12.340;2023-02-23T06:28:02;100004.41;;;8.51;100.00
38038;BME280;23843;51.320;12.340;2023-02-23T06:30:28;100007.91;;;8.52;100.00
38038;BME280;23843;51.320;12.340;2023-02-23T06:32:53;100004.31;;;8.53;100.00
38038;BME280;23843;51.320;12.340;2023-02-23T06:35:20;100006.91;;;8.54;100.00
38038;BME280;23843;51.320;12.340;2023-02-23T06:37:45;100007.50;;;8.60;100.00
38038;BME280;23843;51.320;12.340;2023-02-23T06:40:13;100011.09;;;8.59;100.00
38038;BME280;23843;51.320;12.340;2023-02-23T06:42:42;100015.34;;;8.61;100.00
38038;BME280;23843;51.320;12.340;2023-02-23T06:45:09;100016.88;;;8.65;100.00
38038;BME280;23843;51.320;12.340;2023-02-23T06:47:35;100006.09;;;8.70;100.00
38038;BME280;23843;51.320;12.340;2023-02-23T06:50:03;100015.75;;;8.71;100.00
38038;BME280;23843;51.320;12.340;2023-02-23T06:52:29;100013.09;;;8.71;100.00
38038;BME280;23843;51.320;12.340;2023-02-23T06:54:55;100010.47;;;8.71;100.00
38038;BME280;23843;51.320;12.340;2023-02-23T06:57:22;100013.84;;;8.73;100.00
38038;BME280;23843;51.320;12.340;2023-02-23T06:59:49;100021.47;;;8.79;100.00
38038;BME280;23843;51.320;12.340;2023-02-23T07:02:16;100025.56;;;8.85;100.00
38038;BME280;23843;51.320;12.340;2023-02-23T07:04:42;100024.47;;;8.89;100.00
38038;BME280;23843;51.320;12.340;2023-02-23T07:07:08;100013.50;;;8.96;100.00
38038;BME280;23843;51.320;12.340;2023-02-23T07:09:35;100035.41;;;8.98;100.00
38038;BME280;23843;51.320;12.340;2023-02-23T07:12:02;100025.53;;;9.02;100.00
38038;BME280;23843;51.320;12.340;2023-02-23T07:14:31;100027.94;;;9.07;100.00
38038;BME280;23843;51.320;12.340;2023-02-23T07:16:56;100031.97;;;9.14;100.00
38038;BME280;23843;51.320;12.340;2023-02-23T07:19:22;100031.81;;;9.17;100.00
38038;BME280;23843;51.320;12.340;2023-02-23T07:21:49;100024.63;;;9.19;100.00
38038;BME280;23843;51.320;12.340;2023-02-23T07:24:15;100031.47;;;9.23;100.00
38038;BME280;23843;51.320;12.340;2023-02-23T07:26:41;100031.28;;;9.26;100.00
38038;BME280;23843;51.320;12.340;2023-02-23T07:29:06;100030.97;;;9.32;100.00
38038;BME280;23843;51.320;12.340;2023-02-23T07:31:33;100035.91;;;9.38;100.00
38038;BME280;23843;51.320;12.340;2023-02-23T07:34:07;100046.25;;;9.43;100.00
38038;BME280;23843;51.320;12.340;2023-02-23T07:36:37;100035.59;;;9.45;100.00
38038;BME280;23843;51.320;12.340;2023-02-23T07:39:05;100044.13;;;9.50;100.00
38038;BME280;23843;51.320;12.340;2023-02-23T07:41:34;100048.16;;;9.57;100.00
38038;BME280;23843;51.320;12.340;2023-02-23T07:43:59;100053.00;;;9.64;100.00
38038;BME280;23843;51.320;12.340;2023-02-23T07:46:25;100049.28;;;9.69;100.00
38038;BME280;23843;51.320;12.340;2023-02-23T07:48:52;100053.34;;;9.74;100.00
38038;BME280;23843;51.320;12.340;2023-02-23T07:51:18;100045.09;;;9.80;100.00
38038;BME280;23843;51.320;12.340;2023-02-23T07:53:44;100043.19;;;9.82;100.00
38038;BME280;23843;51.320;12.340;2023-02-23T07:56:11;100049.25;;;9.84;100.00
38038;BME280;23843;51.320;12.340;2023-02-23T07:58:42;100042.94;;;9.87;100.00
38038;BME280;23843;51.320;12.340;2023-02-23T08:01:11;100045.44;;;9.90;100.00
38038;BME280;23843;51.320;12.340;2023-02-23T08:03:37;100046.88;;;9.96;100.00
38038;BME280;23843;51.320;12.340;2023-02-23T08:06:04;100053.53;;;10.03;100.00
38038;BME280;23843;51.320;12.340;2023-02-23T08:08:30;100051.47;;;10.08;100.00
38038;BME280;23843;51.320;12.340;2023-02-23T08:10:58;100052.81;;;10.15;100.00
38038;BME280;23843;51.320;12.340;2023-02-23T08:13:24;100056.06;;;10.20;100.00
38038;BME280;23843;51.320;12.340;2023-02-23T08:15:50;100053.84;;;10.28;100.00
38038;BME280;23843;51.320;12.340;2023-02-23T08:18:16;100054.34;;;10.35;100.00
38038;BME280;23843;51.320;12.340;2023-02-23T08:20:44;100059.47;;;10.38;100.00
38038;BME280;23843;51.320;12.340;2023-02-23T08:23:11;100054.75;;;10.43;100.00
38038;BME280;23843;51.320;12.340;2023-02-23T08:25:37;100054.31;;;10.51;100.00
38038;BME280;23843;51.320;12.340;2023-02-23T08:28:04;100060.94;;;10.58;100.00
38038;BME280;23843;51.320;12.340;2023-02-23T08:30:29;100058.72;;;10.66;100.00
38038;BME280;23843;51.320;12.340;2023-02-23T08:32:55;100065.94;;;10.79;100.00
38038;BME280;23843;51.320;12.340;2023-02-23T08:35:22;100063.97;;;10.97;100.00
38038;BME280;23843;51.320;12.340;2023-02-23T08:37:48;100056.31;;;11.06;100.00
38038;BME280;23843;51.320;12.340;2023-02-23T08:40:15;100060.84;;;11.19;100.00
38038;BME280;23843;51.320;12.340;2023-02-23T08:42:44;100056.03;;;11.25;100.00
38038;BME280;23843;51.320;12.340;2023-02-23T08:45:11;100051.38;;;11.29;100.00
38038;BME280;23843;51.320;12.340;2023-02-23T08:47:37;100048.94;;;11.40;100.00
38038;BME280;23843;51.320;12.340;2023-02-23T08:50:04;100053.09;;;11.44;100.00
38038;BME280;23843;51.320;12.340;2023-02-23T08:52:30;100058.41;;;11.59;100.00
38038;BME280;23843;51.320;12.340;2023-02-23T08:54:56;100051.16;;;11.75;100.00
38038;BME280;23843;51.320;12.340;2023-02-23T08:57:22;100049.16;;;11.93;100.00
38038;BME280;23843;51.320;12.340;2023-02-23T08:59:50;100052.16;;;12.01;100.00
38038;BME280;23843;51.320;12.340;2023-02-23T09:02:16;100059.03;;;12.18;100.00
38038;BME280;23843;51.320;12.340;2023-02-23T09:04:42;100060.69;;;12.33;100.00
38038;BME280;23843;51.320;12.340;2023-02-23T09:07:13;100066.53;;;12.38;100.00
38038;BME280;23843;51.320;12.340;2023-02-23T09:09:38;100060.53;;;12.49;100.00
38038;BME280;23843;51.320;12.340;2023-02-23T09:12:04;100057.50;;;12.68;100.00
38038;BME280;23843;51.320;12.340;2023-02-23T09:14:32;100069.50;;;12.99;100.00
38038;BME280;23843;51.320;12.340;2023-02-23T09:16:57;100062.00;;;13.32;100.00
38038;BME280;23843;51.320;12.340;2023-02-23T09:19:24;100065.69;;;13.55;100.00
38038;BME280;23843;51.320;12.340;2023-02-23T09:21:50;100075.75;;;13.75;100.00
38038;BME280;23843;51.320;12.340;2023-02-23T09:24:16;100060.28;;;13.93;100.00
38038;BME280;23843;51.320;12.340;2023-02-23T09:26:42;100065.84;;;13.90;100.00
38038;BME280;23843;51.320;12.340;2023-02-23T09:29:07;100064.78;;;13.80;100.00
38038;BME280;23843;51.320;12.340;2023-02-23T09:31:34;100068.53;;;13.77;100.00
38038;BME280;23843;51.320;12.340;2023-02-23T09:33:59;100059.69;;;13.77;100.00
38038;BME280;23843;51.320;12.340;2023-02-23T09:36:27;100062.63;;;13.85;100.00
38038;BME280;23843;51.320;12.340;2023-02-23T09:38:54;100065.09;;;13.88;100.00
38038;BME280;23843;51.320;12.340;2023-02-23T09:44:36;100064.34;;;13.86;100.00
38038;BME280;23843;51.320;12.340;2023-02-23T09:47:17;100066.28;;;13.84;100.00
38038;BME280;23843;51.320;12.340;2023-02-23T09:49:47;100070.63;;;13.85;100.00
38038;BME280;23843;51.320;12.340;2023-02-23T09:52:20;100073.50;;;13.82;100.00
38038;BME280;23843;51.320;12.340;2023-02-23T09:54:51;100075.34;;;13.81;100.00
38038;BME280;23843;51.320;12.340;2023-02-23T09:57:20;100076.31;;;13.80;100.00
38038;BME280;23843;51.320;12.340;2023-02-23T09:59:48;100071.81;;;13.81;100.00
38038;BME280;23843;51.320;12.340;2023-02-23T10:02:22;100077.56;;;13.75;100.00
38038;BME280;23843;51.320;12.340;2023-02-23T10:04:50;100074.59;;;13.79;100.00
38038;BME280;23843;51.320;12.340;2023-02-23T10:07:20;100074.81;;;13.76;100.00
38038;BME280;23843;51.320;12.340;2023-02-23T10:09:58;100078.41;;;13.88;100.00
38038;BME280;23843;51.320;12.340;2023-02-23T10:12:33;100072.84;;;13.91;100.00
38038;BME280;23843;51.320;12.340;2023-02-23T10:15:12;100078.03;;;14.05;100.00
38038;BME280;23843;51.320;12.340;2023-02-23T10:17:44;100084.38;;;14.16;100.00
38038;BME280;23843;51.320;12.340;2023-02-23T10:20:20;100077.66;;;14.23;100.00
38038;BME280;23843;51.320;12.340;2023-02-23T10:22:48;100080.06;;;14.26;100.00
38038;BME280;23843;51.320;12.340;2023-02-23T10:25:18;100082.06;;;14.35;100.00
38038;BME280;23843;51.320;12.340;2023-02-23T10:27:49;100083.31;;;14.42;100.00
38038;BME280;23843;51.320;12.340;2023-02-23T10:30:18;100072.19;;;14.48;100.00
38038;BME280;23843;51.320;12.340;2023-02-23T10:32:51;100076.00;;;14.57;100.00
38038;BME280;23843;51.320;12.340;2023-02-23T10:35:19;100073.59;;;14.65;100.00
38038;BME280;23843;51.320;12.340;2023-02-23T10:37:45;100074.81;;;14.61;100.00
38038;BME280;23843;51.320;12.340;2023-02-23T10:40:13;100076.66;;;14.61;100.00
38038;BME280;23843;51.320;12.340;2023-02-23T10:42:40;100081.66;;;14.52;100.00
38038;BME280;23843;51.320;12.340;2023-02-23T10:45:11;100072.91;;;14.63;100.00
38038;BME280;23843;51.320;12.340;2023-02-23T10:47:39;100078.69;;;14.57;100.00
38038;BME280;23843;51.320;12.340;2023-02-23T10:50:09;100079.19;;;14.62;100.00
38038;BME280;23843;51.320;12.340;2023-02-23T10:52:40;100074.13;;;14.70;100.00
38038;BME280;23843;51.320;12.340;2023-02-23T10:55:19;100072.56;;;14.79;100.00
38038;BME280;23843;51.320;12.340;2023-02-23T10:57:48;100071.00;;;14.76;100.00
38038;BME280;23843;51.320;12.340;2023-02-23T11:00:25;100070.88;;;14.89;100.00
38038;BME280;23843;51.320;12.340;2023-02-23T11:02:51;100072.13;;;14.96;100.00
38038;BME280;23843;51.320;12.340;2023-02-23T11:05:30;100068.75;;;15.06;100.00
38038;BME280;23843;51.320;12.340;2023-02-23T11:08:09;100064.41;;;15.05;100.00
38038;BME280;23843;51.320;12.340;2023-02-23T11:10:35;100066.47;;;15.12;100.00
38038;BME280;23843;51.320;12.340;2023-02-23T11:13:01;100057.09;;;15.07;100.00
38038;BME280;23843;51.320;12.340;2023-02-23T11:15:30;100063.78;;;15.01;99.56
38038;BME280;23843;51.320;12.340;2023-02-23T11:17:56;100056.00;;;14.98;100.00
38038;BME280;23843;51.320;12.340;2023-02-23T11:20:29;100052.72;;;14.94;100.00
38038;BME280;23843;51.320;12.340;2023-02-23T11:22:56;100049.06;;;14.84;100.00
38038;BME280;23843;51.320;12.340;2023-02-23T11:25:27;100054.69;;;14.92;100.00
38038;BME280;23843;51.320;12.340;2023-02-23T11:27:54;100053.06;;;14.90;100.00
38038;BME280;23843;51.320;12.340;2023-02-23T11:30:24;100052.97;;;14.91;100.00
38038;BME280;23843;51.320;12.340;2023-02-23T11:32:53;100047.75;;;15.01;100.00
38038;BME280;23843;51.320;12.340;2023-02-23T11:35:27;100047.06;;;15.10;100.00
38038;BME280;23843;51.320;12.340;2023-02-23T11:37:55;100041.72;;;15.10;100.00
38038;BME280;23843;51.320;12.340;2023-02-23T11:40:22;100042.31;;;15.14;100.00
38038;BME280;23843;51.320;12.340;2023-02-23T11:42:54;100032.03;;;15.20;100.00
38038;BME280;23843;51.320;12.340;2023-02-23T11:45:21;100042.09;;;15.17;100.00
38038;BME280;23843;51.320;12.340;2023-02-23T11:47:48;100037.97;;;15.24;100.00
38038;BME280;23843;51.320;12.340;2023-02-23T11:50:27;100029.47;;;15.30;100.00
38038;BME280;23843;51.320;12.340;2023-02-23T11:53:00;100028.88;;;15.38;100.00
38038;BME280;23843;51.320;12.340;2023-02-23T11:55:28;100028.38;;;15.44;99.93
38038;BME280;23843;51.320;12.340;2023-02-23T11:58:07;100027.28;;;15.35;99.58
38038;BME280;23843;51.320;12.340;2023-02-23T12:00:35;100025.34;;;15.37;100.00
38038;BME280;23843;51.320;12.340;2023-02-23T12:03:01;100021.47;;;15.41;100.00
38038;BME280;23843;51.320;12.340;2023-02-23T12:05:29;100024.16;;;15.41;99.06
38038;BME280;23843;51.320;12.340;2023-02-23T12:08:02;100017.44;;;15.36;95.38
38038;BME280;23843;51.320;12.340;2023-02-23T12:10:33;100022.09;;;15.34;95.77
38038;BME280;23843;51.320;12.340;2023-02-23T12:13:04;100018.44;;;15.35;98.38
38038;BME280;23843;51.320;12.340;2023-02-23T12:15:39;100022.22;;;15.44;100.00
38038;BME280;23843;51.320;12.340;2023-02-23T12:18:13;100018.44;;;15.46;100.00
38038;BME280;23843;51.320;12.340;2023-02-23T12:20:46;100011.03;;;15.38;99.43
38038;BME280;23843;51.320;12.340;2023-02-23T12:23:22;100016.97;;;15.42;99.08
38038;BME280;23843;51.320;12.340;2023-02-23T12:25:52;100019.41;;;15.34;96.92
38038;BME280;23843;51.320;12.340;2023-02-23T12:28:24;100020.63;;;15.18;97.66
38038;BME280;23843;51.320;12.340;2023-02-23T12:30:55;100009.44;;;15.13;99.64
38038;BME280;23843;51.320;12.340;2023-02-23T12:33:26;100008.38;;;15.16;100.00
38038;BME280;23843;51.320;12.340;2023-02-23T12:35:57;100003.53;;;15.10;100.00
38038;BME280;23843;51.320;12.340;2023-02-23T12:38:32;99997.31;;;15.09;100.00
38038;BME280;23843;51.320;12.340;2023-02-23T12:41:05;99999.97;;;15.09;100.00
38038;BME280;23843;51.320;12.340;2023-02-23T12:43:38;99997.22;;;15.11;100.00
38038;BME280;23843;51.320;12.340;2023-02-23T12:46:08;100005.72;;;15.05;100.00
38038;BME280;23843;51.320;12.340;2023-02-23T12:48:45;100000.59;;;15.02;100.00
38038;BME280;23843;51.320;12.340;2023-02-23T12:51:20;100004.94;;;14.91;100.00
38038;BME280;23843;51.320;12.340;2023-02-23T12:53:50;100008.34;;;14.93;100.00
38038;BME280;23843;51.320;12.340;2023-02-23T12:56:25;100006.28;;;14.86;100.00
38038;BME280;23843;51.320;12.340;2023-02-23T12:59:01;100002.16;;;14.82;100.00
38038;BME280;23843;51.320;12.340;2023-02-23T13:01:34;100004.22;;;14.78;100.00
38038;BME280;23843;51.320;12.340;2023-02-23T13:04:15;100002.25;;;14.69;100.00
38038;BME280;23843;51.320;12.340;2023-02-23T13:06:54;100004.19;;;14.67;100.00
38038;BME280;23843;51.320;12.340;2023-02-23T13:09:32;100005.16;;;14.66;100.00
38038;BME280;23843;51.320;12.340;2023-02-23T13:12:12;100003.94;;;14.59;100.00
38038;BME280;23843;51.320;12.340;2023-02-23T13:14:44;99999.78;;;14.54;100.00
38038;BME280;23843;51.320;12.340;2023-02-23T13:17:27;100005.53;;;14.48;100.00
38038;BME280;23843;51.320;12.340;2023-02-23T13:19:57;100000.09;;;14.50;100.00
38038;BME280;23843;51.320;12.340;2023-02-23T13:22:34;99998.09;;;14.53;100.00
38038;BME280;23843;51.320;12.340;2023-02-23T13:25:11;99996.09;;;14.44;100.00
38038;BME280;23843;51.320;12.340;2023-02-23T13:27:44;99994.63;;;14.40;100.00
38038;BME280;23843;51.320;12.340;2023-02-23T13:30:14;99997.19;;;14.42;100.00
38038;BME280;23843;51.320;12.340;2023-02-23T13:32:40;99992.94;;;14.39;100.00
38038;BME280;23843;51.320;12.340;2023-02-23T13:35:12;99987.59;;;14.39;100.00
38038;BME280;23843;51.320;12.340;2023-02-23T13:37:40;99986.56;;;14.18;100.00
38038;BME280;23843;51.320;12.340;2023-02-23T13:40:21;99986.06;;;14.12;100.00
38038;BME280;23843;51.320;12.340;2023-02-23T13:42:58;99976.13;;;14.15;100.00
38038;BME280;23843;51.320;12.340;2023-02-23T13:45:35;99983.16;;;14.16;100.00
38038;BME280;23843;51.320;12.340;2023-02-23T13:48:12;99975.91;;;14.18;100.00
38038;BME280;23843;51.320;12.340;2023-02-23T13:50:46;99981.72;;;14.23;100.00
38038;BME280;23843;51.320;12.340;2023-02-23T13:53:36;99976.78;;;14.29;100.00
38038;BME280;23843;51.320;12.340;2023-02-23T13:56:06;99981.66;;;14.35;100.00
38038;BME280;23843;51.320;12.340;2023-02-23T13:58:33;99984.22;;;14.37;100.00
38038;BME280;23843;51.320;12.340;2023-02-23T14:01:08;99976.56;;;14.32;100.00
38038;BME280;23843;51.320;12.340;2023-02-23T14:03:40;99979.13;;;14.34;100.00
38038;BME280;23843;51.320;12.340;2023-02-23T14:06:06;99973.28;;;14.29;100.00
38038;BME280;23843;51.320;12.340;2023-02-23T14:08:38;99973.28;;;14.29;100.00
38038;BME280;23843;51.320;12.340;2023-02-23T14:11:08;99974.88;;;14.31;100.00
38038;BME280;23843;51.320;12.340;2023-02-23T14:13:39;99981.38;;;14.27;100.00
38038;BME280;23843;51.320;12.340;2023-02-23T14:16:12;99977.25;;;14.23;100.00
38038;BME280;23843;51.320;12.340;2023-02-23T14:18:53;99977.72;;;14.17;100.00
38038;BME280;23843;51.320;12.340;2023-02-23T14:21:27;99975.75;;;14.08;100.00
38038;BME280;23843;51.320;12.340;2023-02-23T14:24:02;99974.84;;;13.96;100.00
38038;BME280;23843;51.320;12.340;2023-02-23T14:26:38;99979.09;;;13.99;100.00
38038;BME280;23843;51.320;12.340;2023-02-23T14:29:22;99975.06;;;13.93;100.00
38038;BME280;23843;51.320;12.340;2023-02-23T14:31:56;99976.53;;;13.97;100.00
38038;BME280;23843;51.320;12.340;2023-02-23T14:34:41;99975.25;;;14.03;100.00
38038;BME280;23843;51.320;12.340;2023-02-23T14:37:16;99969.28;;;13.99;100.00
38038;BME280;23843;51.320;12.340;2023-02-23T14:39:42;99971.00;;;14.00;100.00
38038;BME280;23843;51.320;12.340;2023-02-23T14:42:19;99967.81;;;13.95;100.00
38038;BME280;23843;51.320;12.340;2023-02-23T14:44:46;99967.69;;;13.97;100.00
38038;BME280;23843;51.320;12.340;2023-02-23T14:47:13;99963.22;;;13.97;100.00
38038;BME280;23843;51.320;12.340;2023-02-23T14:49:42;99966.84;;;13.96;100.00
38038;BME280;23843;51.320;12.340;2023-02-23T14:52:13;99961.84;;;13.91;100.00
38038;BME280;23843;51.320;12.340;2023-02-23T14:54:40;99957.72;;;13.87;100.00
38038;BME280;23843;51.320;12.340;2023-02-23T14:57:19;99965.09;;;13.84;100.00
38038;BME280;23843;51.320;12.340;2023-02-23T14:59:51;99959.25;;;13.79;100.00
38038;BME280;23843;51.320;12.340;2023-02-23T15:04:44;99952.91;;;13.68;100.00
38038;BME280;23843;51.320;12.340;2023-02-23T15:07:14;99952.84;;;13.57;100.00
38038;BME280;23843;51.320;12.340;2023-02-23T15:09:41;99955.84;;;13.53;100.00
38038;BME280;23843;51.320;12.340;2023-02-23T15:12:13;99959.47;;;13.52;100.00
38038;BME280;23843;51.320;12.340;2023-02-23T15:14:42;99949.78;;;13.51;100.00
38038;BME280;23843;51.320;12.340;2023-02-23T15:17:16;99953.75;;;13.45;100.00
38038;BME280;23843;51.320;12.340;2023-02-23T15:19:43;99951.41;;;13.40;100.00
38038;BME280;23843;51.320;12.340;2023-02-23T15:22:20;99952.25;;;13.41;100.00
38038;BME280;23843;51.320;12.340;2023-02-23T15:24:48;99954.19;;;13.39;100.00
38038;BME280;23843;51.320;12.340;2023-02-23T15:27:19;99952.94;;;13.32;100.00
38038;BME280;23843;51.320;12.340;2023-02-23T15:29:47;99952.28;;;13.28;100.00
38038;BME280;23843;51.320;12.340;2023-02-23T15:32:18;99961.31;;;13.25;100.00
38038;BME280;23843;51.320;12.340;2023-02-23T15:34:44;99962.28;;;13.24;100.00
38038;BME280;23843;51.320;12.340;2023-02-23T15:37:13;99960.56;;;13.23;100.00
38038;BME280;23843;51.320;12.340;2023-02-23T15:39:46;99958.13;;;13.20;100.00
38038;BME280;23843;51.320;12.340;2023-02-23T15:42:15;99956.66;;;13.16;100.00
38038;BME280;23843;51.320;12.340;2023-02-23T15:44:43;99963.69;;;13.17;100.00
38038;BME280;23843;51.320;12.340;2023-02-23T15:47:17;99954.31;;;13.12;100.00
38038;BME280;23843;51.320;12.340;2023-02-23T15:49:44;99956.13;;;13.11;100.00
38038;BME280;23843;51.320;12.340;2023-02-23T15:52:15;99957.19;;;13.09;100.00
38038;BME280;23843;51.320;12.340;2023-02-23T15:54:46;99952.31;;;13.02;100.00
38038;BME280;23843;51.320;12.340;2023-02-23T15:57:18;99955.94;;;13.01;100.00
38038;BME280;23843;51.320;12.340;2023-02-23T15:59:45;99949.84;;;12.99;100.00
38038;BME280;23843;51.320;12.340;2023-02-23T16:02:15;99949.34;;;12.94;100.00
38038;BME280;23843;51.320;12.340;2023-02-23T16:04:42;99953.06;;;12.92;100.00
38038;BME280;23843;51.320;12.340;2023-02-23T16:07:16;99949.56;;;12.91;100.00
38038;BME280;23843;51.320;12.340;2023-02-23T16:09:51;99956.03;;;12.87;100.00
38038;BME280;23843;51.320;12.340;2023-02-23T16:12:19;99957.31;;;12.81;100.00
38038;BME280;23843;51.320;12.340;2023-02-23T16:14:49;99954.66;;;12.81;100.00
38038;BME280;23843;51.320;12.340;2023-02-23T16:17:24;99953.91;;;12.79;100.00
38038;BME280;23843;51.320;12.340;2023-02-23T16:19:51;99953.91;;;12.79;100.00
38038;BME280;23843;51.320;12.340;2023-02-23T16:22:21;99952.88;;;12.69;100.00
38038;BME280;23843;51.320;12.340;2023-02-23T16:24:55;99959.78;;;12.59;100.00
38038;BME280;23843;51.320;12.340;2023-02-23T16:27:23;99955.53;;;12.56;100.00
38038;BME280;23843;51.320;12.340;2023-02-23T16:29:56;99952.66;;;12.47;100.00
38038;BME280;23843;51.320;12.340;2023-02-23T16:32:23;99955.72;;;12.40;100.00
38038;BME280;23843;51.320;12.340;2023-02-23T16:34:53;99961.25;;;12.37;100.00
38038;BME280;23843;51.320;12.340;2023-02-23T16:37:20;99961.78;;;12.30;100.00
38038;BME280;23843;51.320;12.340;2023-02-23T16:39:46;99961.00;;;12.28;100.00
38038;BME280;23843;51.320;12.340;2023-02-23T16:42:19;99967.47;;;12.24;100.00
38038;BME280;23843;51.320;12.340;2023-02-23T16:44:45;99958.88;;;12.20;100.00
38038;BME280;23843;51.320;12.340;2023-02-23T16:47:35;99956.84;;;12.11;100.00
38038;BME280;23843;51.320;12.340;2023-02-23T16:50:11;99959.69;;;12.08;100.00
38038;BME280;23843;51.320;12.340;2023-02-23T16:52:37;99961.59;;;12.06;100.00
38038;BME280;23843;51.320;12.340;2023-02-23T16:55:04;99966.06;;;12.05;100.00
38038;BME280;23843;51.320;12.340;2023-02-23T16:57:36;99963.41;;;12.05;100.00
38038;BME280;23843;51.320;12.340;2023-02-23T17:00:04;99966.38;;;12.01;100.00
38038;BME280;23843;51.320;12.340;2023-02-23T17:02:30;99971.13;;;11.95;100.00
38038;BME280;23843;51.320;12.340;2023-02-23T17:04:59;99973.41;;;11.87;100.00
38038;BME280;23843;51.320;12.340;2023-02-23T17:07:24;99972.97;;;11.81;100.00
38038;BME280;23843;51.320;12.340;2023-02-23T17:09:50;99975.16;;;11.74;100.00
38038;BME280;23843;51.320;12.340;2023-02-23T17:12:16;99970.44;;;11.65;100.00
38038;BME280;23843;51.320;12.340;2023-02-23T17:14:42;99972.25;;;11.64;100.00
38038;BME280;23843;51.320;12.340;2023-02-23T17:17:12;99973.28;;;11.62;100.00
38038;BME280;23843;51.320;12.340;2023-02-23T17:19:39;99972.53;;;11.60;100.00
38038;BME280;23843;51.320;12.340;2023-02-23T17:22:06;99979.75;;;11.57;100.00
38038;BME280;23843;51.320;12.340;2023-02-23T17:24:35;99978.25;;;11.53;100.00
38038;BME280;23843;51.320;12.340;2023-02-23T17:27:01;99981.75;;;11.54;100.00
38038;BME280;23843;51.320;12.340;2023-02-23T17:29:26;99968.56;;;11.52;100.00
38038;BME280;23843;51.320;12.340;2023-02-23T17:31:52;99976.75;;;11.49;100.00
38038;BME280;23843;51.320;12.340;2023-02-23T17:34:17;99980.25;;;11.50;100.00
38038;BME280;23843;51.320;12.340;2023-02-23T17:36:43;99985.53;;;11.50;100.00
38038;BME280;23843;51.320;12.340;2023-02-23T17:39:10;99979.59;;;11.46;100.00
38038;BME280;23843;51.320;12.340;2023-02-23T17:41:35;99981.38;;;11.46;100.00
38038;BME280;23843;51.320;12.340;2023-02-23T17:44:01;99982.34;;;11.45;100.00
38038;BME280;23843;51.320;12.340;2023-02-23T17:46:26;99976.19;;;11.44;100.00
38038;BME280;23843;51.320;12.340;2023-02-23T17:48:52;99977.22;;;11.42;100.00
38038;BME280;23843;51.320;12.340;2023-02-23T17:51:17;99979.13;;;11.40;100.00
38038;BME280;23843;51.320;12.340;2023-02-23T17:53:43;99971.25;;;11.38;100.00
38038;BME280;23843;51.320;12.340;2023-02-23T17:56:10;99981.50;;;11.44;100.00
38038;BME280;23843;51.320;12.340;2023-02-23T17:58:36;99977.88;;;11.45;100.00
38038;BME280;23843;51.320;12.340;2023-02-23T18:01:03;99979.88;;;11.42;100.00
38038;BME280;23843;51.320;12.340;2023-02-23T18:03:31;99981.69;;;11.41;100.00
38038;BME280;23843;51.320;12.340;2023-02-23T18:05:58;99974.75;;;11.39;100.00
38038;BME280;23843;51.320;12.340;2023-02-23T18:08:24;99978.28;;;11.39;100.00
38038;BME280;23843;51.320;12.340;2023-02-23T18:10:51;99975.06;;;11.34;100.00
38038;BME280;23843;51.320;12.340;2023-02-23T18:13:18;99980.38;;;11.34;100.00
38038;BME280;23843;51.320;12.340;2023-02-23T18:15:47;99980.75;;;11.28;100.00
38038;BME280;23843;51.320;12.340;2023-02-23T18:18:13;99988.78;;;11.26;100.00
38038;BME280;23843;51.320;12.340;2023-02-23T18:20:39;99982.63;;;11.26;100.00
38038;BME280;23843;51.320;12.340;2023-02-23T18:23:05;99985.41;;;11.24;100.00
38038;BME280;23843;51.320;12.340;2023-02-23T18:25:31;99992.47;;;11.24;100.00
38038;BME280;23843;51.320;12.340;2023-02-23T18:27:59;99988.06;;;11.24;100.00